Trivandrum International Airport
VOTV : now visible

Airfield :











YOU CAN JOIN US ON...

 
LOGIN :

Register | Disclaimer

   EN    FR    IT 

 









Legend :    VFR   Marginal VFR   IFR   Intensive IFR   Very Intensive IFR
Visi :
Ceiling :
>= 8 km
>= 3000ft
5 to 8 km
1000 to 3000 ft
1500m to 5 km
500 to 1000 ft
800 to 1500m
200 to 500 ft
< 800m
< 200 ft
Symbols :   Thunderstorms  Fog  Heavy snow  Heavy precipitations  Wind > 20 kt






- Airport Elevation : 15 ft
- IATA code : TRV


VOTV - Trivandrum International

CURRENT METAR :
  • 252000Z VRB02KT 3000 BR SCT015 SCT080 26/25 Q1009 NOSIG

EXPIRED METARs :
  • 251930Z VRB02KT 3000 BR SCT015 SCT080 27/25 Q1009 NOSIG
  • 251900Z VRB01KT 3000 BR SCT015 SCT080 27/25 Q1010 NOSIG
  • 251830Z VRB01KT 3000 BR SCT015 BKN080 27/25 Q1010 NOSIG
  • 251800Z VRB02KT 3000 BR SCT015 BKN080 27/25 Q1010 NOSIG

TAF TAF VOTV
Valid from the 25 at 21:00 until the 26 at 06:00 UTC


252000Z 2521/2606 VRB03KT 3000 BR SCT012 FEW025CB BKN080
TEMPO 2522/2602 2000 RA BR
BECMG 2603/2604 30010KT 4000 HZ SCT012 BKN080
VOMF FIR / Asia



MET'MAP, your aeronautical weather chart ! - Copyright ORBIFLY December 2007 - Disclaimer

ORBIFLY MET'MAP TEAM :

Programming & Development : Alexandra Zaïnal
Concept & original design : Baudouin d'Aumeries
Assistance for programming : Marc-Olivier Méhu
Technical & hardware support : Manuel Goepfert

Contact : metmap@orbifly.com




SOURCES & CREDITS :

   NOAA       Earth
Advisory